This is the latest recevied weather packets stored in our database for station/object WB4FAY-4. If no packets are shown the sender has not sent any weather packets the latest 1 day(s).
| Time | Temp. | Humidity | Pressure | Rain* | Wind** | Luminosity | Snow |
|---|---|---|---|---|---|---|---|
| 1836274691 | 20.56° C | 96% | - | 0.25 mm | 0 m/s | - | - |
| 1836274541 | 20.56° C | 96% | - | 0.25 mm | 0 m/s | - | - |
| 1836274392 | 20.56° C | 96% | - | 0.25 mm | 0 m/s | - | - |
| 1836274241 | 20.56° C | 96% | - | 0.25 mm | 0 m/s | - | - |
| 1836274091 | 20.56° C | 96% | - | 0.25 mm | 0 m/s | - | - |
| 1778056217 | 20.56° C | 81% | 1012.5 hPa | 0 mm | 1.34 m/s, 246° | - | - |
| 1778055917 | 20.56° C | 81% | 1012.5 hPa | 0 mm | 0.89 m/s, 217° | - | - |
| 1778055618 | 20.56° C | 81% | 1012.5 hPa | 0 mm | 1.79 m/s, 199° | - | - |
| 1778055317 | 20.56° C | 80% | 1012.6 hPa | 0 mm | 1.34 m/s, 191° | - | - |
| 1778055017 | 20.56° C | 80% | 1012.6 hPa | 0 mm | 0.89 m/s, 241° | - | - |
| 1778054717 | 20.56° C | 80% | 1012.6 hPa | 0 mm | 1.34 m/s, 229° | - | - |
| 1778054417 | 20.56° C | 79% | 1012.6 hPa | 0 mm | 0.45 m/s, 265° | - | - |
| 1778054117 | 20.56° C | 79% | 1012.7 hPa | 0 mm | 2.24 m/s, 202° | - | - |
| 1778053817 | 20.56° C | 79% | 1012.7 hPa | 0 mm | 2.24 m/s, 191° | - | - |
| 1778053523 | 21.11° C | 78% | 1012.6 hPa | 0 mm | 1.34 m/s, 195° | - | - |
| 1778053217 | 21.11° C | 78% | 1012.6 hPa | 0 mm | 2.68 m/s, 199° | - | - |
| 1778052917 | 21.11° C | 77% | 1012.7 hPa | 0 mm | 0 m/s | - | - |
| 1778052618 | 21.11° C | 77% | 1012.6 hPa | 0 mm | 1.79 m/s, 230° | - | - |
| 1778052317 | 21.11° C | 77% | 1012.6 hPa | 0 mm | 1.34 m/s, 208° | - | - |
| 1778052017 | 21.11° C | 77% | 1012.6 hPa | 0 mm | 1.79 m/s, 199° | - | - |
| 1778051718 | 21.11° C | 76% | 1012.7 hPa | 0 mm | 1.34 m/s, 234° | - | - |
| 1778051417 | 21.11° C | 76% | 1012.6 hPa | 0 mm | 0.89 m/s, 258° | - | - |
| 1778051118 | 21.11° C | 76% | 1012.8 hPa | 0 mm | 2.24 m/s, 188° | - | - |
| 1778050818 | 21.11° C | 76% | 1012.8 hPa | 0 mm | 1.79 m/s, 202° | - | - |
| 1778050517 | 21.11° C | 75% | 1012.8 hPa | 0 mm | 0.45 m/s, 198° | - | - |
* Rain latest 24 hours (hover to see other rain measurements)
** Current wind speed in m/s (hover to see current wind gust speed)